sensor_id;sensor_type;location;lat;lon;timestamp;pressure;altitude;pressure_sealevel;temperature;humidity
43450;BME280;29041;42.266;23.110;2022-09-13T00:01:10;95629.00;;;16.20;65.31
43450;BME280;29041;42.266;23.110;2022-09-13T00:03:57;95633.56;;;15.93;65.67
43450;BME280;29041;42.266;23.110;2022-09-13T00:06:44;95627.56;;;16.03;65.35
43450;BME280;29041;42.266;23.110;2022-09-13T00:09:31;95623.91;;;16.15;64.69
43450;BME280;29041;42.266;23.110;2022-09-13T00:12:21;95619.91;;;15.85;64.94
43450;BME280;29041;42.266;23.110;2022-09-13T00:15:09;95618.13;;;15.93;65.63
43450;BME280;29041;42.266;23.110;2022-09-13T00:17:58;95623.16;;;15.75;66.12
43450;BME280;29041;42.266;23.110;2022-09-13T00:20:45;95624.25;;;15.90;65.20
43450;BME280;29041;42.266;23.110;2022-09-13T00:23:33;95613.38;;;15.67;66.71
43450;BME280;29041;42.266;23.110;2022-09-13T00:26:22;95601.50;;;15.95;65.41
43450;BME280;29041;42.266;23.110;2022-09-13T00:29:09;95605.47;;;16.24;63.55
43450;BME280;29041;42.266;23.110;2022-09-13T00:31:58;95601.25;;;15.61;66.43
43450;BME280;29041;42.266;23.110;2022-09-13T00:34:46;95597.59;;;15.73;66.23
43450;BME280;29041;42.266;23.110;2022-09-13T00:37:33;95592.47;;;15.87;65.63
43450;BME280;29041;42.266;23.110;2022-09-13T00:40:21;95604.75;;;15.61;66.13
43450;BME280;29041;42.266;23.110;2022-09-13T00:43:15;95598.47;;;15.77;66.32
43450;BME280;29041;42.266;23.110;2022-09-13T00:46:03;95600.91;;;16.05;64.69
43450;BME280;29041;42.266;23.110;2022-09-13T00:48:55;95592.19;;;15.92;65.50
43450;BME280;29041;42.266;23.110;2022-09-13T00:51:48;95601.44;;;15.91;65.48
43450;BME280;29041;42.266;23.110;2022-09-13T00:54:43;95601.25;;;16.04;65.64
43450;BME280;29041;42.266;23.110;2022-09-13T00:57:34;95593.81;;;15.77;66.20
43450;BME280;29041;42.266;23.110;2022-09-13T01:00:22;95590.25;;;15.93;65.38
43450;BME280;29041;42.266;23.110;2022-09-13T01:03:12;95588.56;;;15.84;66.03
43450;BME280;29041;42.266;23.110;2022-09-13T01:06:07;95586.13;;;15.79;66.36
43450;BME280;29041;42.266;23.110;2022-09-13T01:08:58;95580.88;;;15.86;65.08
43450;BME280;29041;42.266;23.110;2022-09-13T01:11:50;95571.38;;;15.96;65.50
43450;BME280;29041;42.266;23.110;2022-09-13T01:14:46;95582.25;;;16.23;64.43
43450;BME280;29041;42.266;23.110;2022-09-13T01:17:34;95579.34;;;15.89;64.89
43450;BME280;29041;42.266;23.110;2022-09-13T01:20:30;95582.44;;;16.11;64.29
43450;BME280;29041;42.266;23.110;2022-09-13T01:23:44;95572.56;;;15.99;64.39
43450;BME280;29041;42.266;23.110;2022-09-13T01:30:11;95569.16;;;16.29;64.09
43450;BME280;29041;42.266;23.110;2022-09-13T01:33:23;95570.69;;;16.26;63.77
43450;BME280;29041;42.266;23.110;2022-09-13T01:36:29;95567.25;;;16.29;63.42
43450;BME280;29041;42.266;23.110;2022-09-13T01:39:27;95568.78;;;16.04;64.23
43450;BME280;29041;42.266;23.110;2022-09-13T01:42:26;95557.06;;;15.76;65.17
43450;BME280;29041;42.266;23.110;2022-09-13T01:45:26;95560.75;;;16.11;64.48
43450;BME280;29041;42.266;23.110;2022-09-13T01:48:16;95560.59;;;16.23;63.73
43450;BME280;29041;42.266;23.110;2022-09-13T01:51:10;95567.84;;;16.19;64.47
43450;BME280;29041;42.266;23.110;2022-09-13T01:54:10;95568.63;;;16.43;63.52
43450;BME280;29041;42.266;23.110;2022-09-13T01:57:02;95555.72;;;16.36;63.22
43450;BME280;29041;42.266;23.110;2022-09-13T01:59:52;95563.09;;;16.36;64.26
43450;BME280;29041;42.266;23.110;2022-09-13T02:02:44;95568.00;;;16.03;66.19
43450;BME280;29041;42.266;23.110;2022-09-13T02:05:37;95551.53;;;15.89;65.91
43450;BME280;29041;42.266;23.110;2022-09-13T02:08:33;95572.25;;;16.54;63.07
43450;BME280;29041;42.266;23.110;2022-09-13T02:11:21;95582.81;;;16.90;62.13
43450;BME280;29041;42.266;23.110;2022-09-13T02:14:12;95572.44;;;15.92;65.36
43450;BME280;29041;42.266;23.110;2022-09-13T02:17:03;95570.81;;;15.87;65.58
43450;BME280;29041;42.266;23.110;2022-09-13T02:19:57;95578.16;;;16.33;64.17
43450;BME280;29041;42.266;23.110;2022-09-13T02:22:50;95576.56;;;15.62;67.67
43450;BME280;29041;42.266;23.110;2022-09-13T02:25:40;95579.34;;;15.27;68.29
43450;BME280;29041;42.266;23.110;2022-09-13T02:28:41;95577.78;;;15.26;68.63
43450;BME280;29041;42.266;23.110;2022-09-13T02:31:33;95577.84;;;15.29;68.41
43450;BME280;29041;42.266;23.110;2022-09-13T02:34:24;95573.72;;;15.35;67.74
43450;BME280;29041;42.266;23.110;2022-09-13T02:37:18;95571.16;;;15.62;67.32
43450;BME280;29041;42.266;23.110;2022-09-13T02:40:09;95567.69;;;15.22;68.66
43450;BME280;29041;42.266;23.110;2022-09-13T02:43:03;95575.00;;;15.42;68.25
43450;BME280;29041;42.266;23.110;2022-09-13T02:45:55;95582.19;;;15.34;68.36
43450;BME280;29041;42.266;23.110;2022-09-13T02:48:51;95576.91;;;15.61;67.25
43450;BME280;29041;42.266;23.110;2022-09-13T02:51:49;95580.44;;;15.02;71.02
43450;BME280;29041;42.266;23.110;2022-09-13T02:54:44;95577.88;;;15.10;71.36
43450;BME280;29041;42.266;23.110;2022-09-13T02:57:38;95578.00;;;15.36;70.15
43450;BME280;29041;42.266;23.110;2022-09-13T03:00:29;95570.94;;;15.94;68.09
43450;BME280;29041;42.266;23.110;2022-09-13T03:03:27;95573.34;;;15.99;67.96
43450;BME280;29041;42.266;23.110;2022-09-13T03:06:21;95577.56;;;15.77;67.94
43450;BME280;29041;42.266;23.110;2022-09-13T03:09:08;95571.97;;;15.66;68.27
43450;BME280;29041;42.266;23.110;2022-09-13T03:12:10;95577.84;;;15.29;69.84
43450;BME280;29041;42.266;23.110;2022-09-13T03:15:11;95578.00;;;15.56;68.80
43450;BME280;29041;42.266;23.110;2022-09-13T03:18:07;95579.28;;;16.09;67.27
43450;BME280;29041;42.266;23.110;2022-09-13T03:21:06;95588.22;;;16.59;65.21
43450;BME280;29041;42.266;23.110;2022-09-13T03:24:00;95592.31;;;16.76;64.21
43450;BME280;29041;42.266;23.110;2022-09-13T03:27:05;95593.44;;;15.98;67.50
43450;BME280;29041;42.266;23.110;2022-09-13T03:30:02;95593.75;;;15.93;67.72
43450;BME280;29041;42.266;23.110;2022-09-13T03:32:56;95598.63;;;16.07;66.72
43450;BME280;29041;42.266;23.110;2022-09-13T03:35:50;95597.78;;;16.03;67.86
43450;BME280;29041;42.266;23.110;2022-09-13T03:38:44;95593.31;;;15.91;67.06
43450;BME280;29041;42.266;23.110;2022-09-13T03:41:37;95602.13;;;16.08;67.34
43450;BME280;29041;42.266;23.110;2022-09-13T03:44:28;95606.00;;;16.57;65.67
43450;BME280;29041;42.266;23.110;2022-09-13T03:47:18;95610.66;;;16.60;65.38
43450;BME280;29041;42.266;23.110;2022-09-13T03:50:07;95618.31;;;16.54;65.21
43450;BME280;29041;42.266;23.110;2022-09-13T03:52:58;95610.22;;;15.84;67.84
43450;BME280;29041;42.266;23.110;2022-09-13T03:55:46;95608.06;;;16.17;67.55
43450;BME280;29041;42.266;23.110;2022-09-13T03:58:35;95603.75;;;15.69;68.94
43450;BME280;29041;42.266;23.110;2022-09-13T04:01:23;95610.00;;;15.34;70.08
43450;BME280;29041;42.266;23.110;2022-09-13T04:04:11;95607.75;;;15.36;70.49
43450;BME280;29041;42.266;23.110;2022-09-13T04:06:58;95619.72;;;15.16;72.03
43450;BME280;29041;42.266;23.110;2022-09-13T04:09:48;95616.47;;;15.69;69.22
43450;BME280;29041;42.266;23.110;2022-09-13T04:12:35;95621.44;;;16.29;66.06
43450;BME280;29041;42.266;23.110;2022-09-13T04:15:23;95620.19;;;15.61;69.80
43450;BME280;29041;42.266;23.110;2022-09-13T04:18:12;95618.63;;;15.40;70.10
43450;BME280;29041;42.266;23.110;2022-09-13T04:21:00;95610.78;;;15.15;71.00
43450;BME280;29041;42.266;23.110;2022-09-13T04:23:49;95613.00;;;15.10;71.42
43450;BME280;29041;42.266;23.110;2022-09-13T04:26:36;95611.88;;;15.11;71.50
43450;BME280;29041;42.266;23.110;2022-09-13T04:29:25;95608.47;;;15.33;69.92
43450;BME280;29041;42.266;23.110;2022-09-13T04:32:12;95615.34;;;15.31;69.36
43450;BME280;29041;42.266;23.110;2022-09-13T04:35:03;95612.41;;;15.79;68.48
43450;BME280;29041;42.266;23.110;2022-09-13T04:37:54;95618.19;;;16.20;66.06
43450;BME280;29041;42.266;23.110;2022-09-13T04:40:53;95622.91;;;16.04;67.43
43450;BME280;29041;42.266;23.110;2022-09-13T04:43:42;95618.69;;;15.83;68.40
43450;BME280;29041;42.266;23.110;2022-09-13T04:46:29;95615.41;;;15.74;67.66
43450;BME280;29041;42.266;23.110;2022-09-13T04:49:17;95621.13;;;16.11;66.80
43450;BME280;29041;42.266;23.110;2022-09-13T04:52:30;95620.69;;;15.27;68.57
43450;BME280;29041;42.266;23.110;2022-09-13T05:00:32;95621.91;;;15.10;69.42
43450;BME280;29041;42.266;23.110;2022-09-13T05:03:20;95619.97;;;15.50;68.28
43450;BME280;29041;42.266;23.110;2022-09-13T05:06:09;95627.31;;;15.69;67.22
43450;BME280;29041;42.266;23.110;2022-09-13T05:09:03;95620.59;;;16.02;65.47
43450;BME280;29041;42.266;23.110;2022-09-13T05:12:06;95628.47;;;16.11;65.39
43450;BME280;29041;42.266;23.110;2022-09-13T05:14:59;95624.31;;;15.94;66.09
43450;BME280;29041;42.266;23.110;2022-09-13T05:17:49;95629.00;;;16.20;65.26
43450;BME280;29041;42.266;23.110;2022-09-13T05:20:39;95618.59;;;16.22;64.96
43450;BME280;29041;42.266;23.110;2022-09-13T05:23:31;95614.88;;;16.57;64.25
43450;BME280;29041;42.266;23.110;2022-09-13T05:34:23;95628.44;;;16.84;63.50
43450;BME280;29041;42.266;23.110;2022-09-13T05:37:17;95630.56;;;17.25;62.71
43450;BME280;29041;42.266;23.110;2022-09-13T05:47:50;95637.47;;;17.87;60.31
43450;BME280;29041;42.266;23.110;2022-09-13T05:50:39;95635.72;;;18.47;58.67
43450;BME280;29041;42.266;23.110;2022-09-13T05:56:01;95645.06;;;18.49;59.17
43450;BME280;29041;42.266;23.110;2022-09-13T05:58:49;95641.59;;;18.52;58.41
43450;BME280;29041;42.266;23.110;2022-09-13T06:01:37;95634.03;;;17.90;60.87
43450;BME280;29041;42.266;23.110;2022-09-13T06:04:24;95643.94;;;18.09;60.56
43450;BME280;29041;42.266;23.110;2022-09-13T06:07:13;95634.09;;;18.38;59.90
43450;BME280;29041;42.266;23.110;2022-09-13T06:10:00;95642.31;;;18.94;58.15
43450;BME280;29041;42.266;23.110;2022-09-13T06:12:49;95639.66;;;19.05;57.71
43450;BME280;29041;42.266;23.110;2022-09-13T06:15:36;95630.38;;;19.13;56.93
43450;BME280;29041;42.266;23.110;2022-09-13T06:18:27;95627.81;;;19.53;56.28
43450;BME280;29041;42.266;23.110;2022-09-13T06:21:16;95623.66;;;18.96;58.00
43450;BME280;29041;42.266;23.110;2022-09-13T06:24:06;95633.59;;;19.44;56.94
43450;BME280;29041;42.266;23.110;2022-09-13T06:26:53;95636.53;;;19.88;55.42
43450;BME280;29041;42.266;23.110;2022-09-13T06:29:40;95643.69;;;19.33;57.88
43450;BME280;29041;42.266;23.110;2022-09-13T06:32:27;95640.84;;;20.14;57.10
43450;BME280;29041;42.266;23.110;2022-09-13T06:35:14;95650.63;;;20.48;55.56
43450;BME280;29041;42.266;23.110;2022-09-13T06:38:02;95649.00;;;21.22;53.44
43450;BME280;29041;42.266;23.110;2022-09-13T06:40:59;95647.03;;;23.17;48.87
43450;BME280;29041;42.266;23.110;2022-09-13T06:43:51;95643.91;;;26.31;40.18
43450;BME280;29041;42.266;23.110;2022-09-13T06:46:39;95638.63;;;29.52;33.81
43450;BME280;29041;42.266;23.110;2022-09-13T06:49:26;95638.50;;;27.82;35.67
43450;BME280;29041;42.266;23.110;2022-09-13T06:52:16;95642.38;;;27.97;34.86
43450;BME280;29041;42.266;23.110;2022-09-13T06:55:04;95635.47;;;29.27;33.31
43450;BME280;29041;42.266;23.110;2022-09-13T06:57:52;95636.41;;;32.03;28.41
43450;BME280;29041;42.266;23.110;2022-09-13T07:00:39;95637.22;;;31.85;28.41
43450;BME280;29041;42.266;23.110;2022-09-13T07:03:26;95632.84;;;30.63;29.46
43450;BME280;29041;42.266;23.110;2022-09-13T07:06:15;95634.50;;;31.29;28.83
43450;BME280;29041;42.266;23.110;2022-09-13T07:09:04;95633.28;;;32.10;27.15
43450;BME280;29041;42.266;23.110;2022-09-13T07:11:53;95636.94;;;31.08;28.36
43450;BME280;29041;42.266;23.110;2022-09-13T07:14:42;95638.50;;;29.55;29.04
43450;BME280;29041;42.266;23.110;2022-09-13T07:17:29;95636.16;;;31.54;27.22
43450;BME280;29041;42.266;23.110;2022-09-13T07:20:16;95645.78;;;29.94;28.21
43450;BME280;29041;42.266;23.110;2022-09-13T07:23:03;95637.25;;;30.01;28.74
43450;BME280;29041;42.266;23.110;2022-09-13T07:25:53;95624.56;;;29.90;28.72
43450;BME280;29041;42.266;23.110;2022-09-13T07:28:42;95642.47;;;30.99;26.95
43450;BME280;29041;42.266;23.110;2022-09-13T07:31:35;95632.31;;;31.61;27.06
43450;BME280;29041;42.266;23.110;2022-09-13T07:34:24;95641.81;;;30.67;27.64
43450;BME280;29041;42.266;23.110;2022-09-13T07:37:11;95653.16;;;30.50;27.39
43450;BME280;29041;42.266;23.110;2022-09-13T07:39:58;95631.09;;;31.15;26.40
43450;BME280;29041;42.266;23.110;2022-09-13T07:42:45;95644.44;;;30.39;26.88
43450;BME280;29041;42.266;23.110;2022-09-13T07:45:32;95637.00;;;28.58;29.48
43450;BME280;29041;42.266;23.110;2022-09-13T07:48:21;95632.00;;;27.89;29.65
43450;BME280;29041;42.266;23.110;2022-09-13T07:51:09;95638.13;;;28.22;29.71
43450;BME280;29041;42.266;23.110;2022-09-13T07:53:58;95655.53;;;28.06;30.78
43450;BME280;29041;42.266;23.110;2022-09-13T07:56:46;95659.31;;;26.62;30.94
43450;BME280;29041;42.266;23.110;2022-09-13T07:59:34;95654.66;;;27.67;30.63
43450;BME280;29041;42.266;23.110;2022-09-13T08:02:23;95659.13;;;26.36;32.57
43450;BME280;29041;42.266;23.110;2022-09-13T08:05:11;95651.63;;;25.63;32.75
43450;BME280;29041;42.266;23.110;2022-09-13T08:07:59;95653.34;;;27.13;30.98
43450;BME280;29041;42.266;23.110;2022-09-13T08:10:46;95643.69;;;27.21;31.84
43450;BME280;29041;42.266;23.110;2022-09-13T08:13:33;95652.13;;;25.14;34.02
43450;BME280;29041;42.266;23.110;2022-09-13T08:16:22;95642.38;;;24.38;35.39
43450;BME280;29041;42.266;23.110;2022-09-13T08:19:12;95636.19;;;28.58;30.30
43450;BME280;29041;42.266;23.110;2022-09-13T08:22:00;95634.88;;;25.57;32.87
43450;BME280;29041;42.266;23.110;2022-09-13T08:24:47;95657.41;;;24.81;34.17
43450;BME280;29041;42.266;23.110;2022-09-13T08:27:34;95647.91;;;25.09;33.32
43450;BME280;29041;42.266;23.110;2022-09-13T08:30:21;95646.22;;;25.15;34.68
43450;BME280;29041;42.266;23.110;2022-09-13T08:33:10;95654.16;;;25.10;35.31
43450;BME280;29041;42.266;23.110;2022-09-13T08:35:57;95645.09;;;25.93;33.38
43450;BME280;29041;42.266;23.110;2022-09-13T08:38:47;95636.34;;;25.42;33.73
43450;BME280;29041;42.266;23.110;2022-09-13T08:42:15;95636.19;;;26.06;32.02
43450;BME280;29041;42.266;23.110;2022-09-13T08:45:06;95630.16;;;25.94;32.60
43450;BME280;29041;42.266;23.110;2022-09-13T08:47:56;95629.00;;;25.55;32.83
43450;BME280;29041;42.266;23.110;2022-09-13T08:50:45;95630.19;;;26.11;31.13
43450;BME280;29041;42.266;23.110;2022-09-13T08:53:41;95640.72;;;25.35;32.66
43450;BME280;29041;42.266;23.110;2022-09-13T08:56:39;95615.13;;;24.78;34.29
43450;BME280;29041;42.266;23.110;2022-09-13T08:59:43;95645.44;;;24.71;33.07
43450;BME280;29041;42.266;23.110;2022-09-13T09:05:53;95630.50;;;24.21;33.54
43450;BME280;29041;42.266;23.110;2022-09-13T09:08:43;95631.75;;;23.85;34.18
43450;BME280;29041;42.266;23.110;2022-09-13T09:11:35;95624.72;;;24.39;32.70
43450;BME280;29041;42.266;23.110;2022-09-13T09:14:30;95621.53;;;24.92;32.43
43450;BME280;29041;42.266;23.110;2022-09-13T09:17:22;95618.34;;;25.37;32.17
43450;BME280;29041;42.266;23.110;2022-09-13T09:20:20;95607.53;;;25.87;31.91
43450;BME280;29041;42.266;23.110;2022-09-13T09:23:13;95603.75;;;26.34;31.08
43450;BME280;29041;42.266;23.110;2022-09-13T09:26:14;95597.72;;;25.86;33.07
43450;BME280;29041;42.266;23.110;2022-09-13T09:29:15;95602.94;;;27.29;28.94
43450;BME280;29041;42.266;23.110;2022-09-13T09:32:09;95602.94;;;26.99;28.85
43450;BME280;29041;42.266;23.110;2022-09-13T09:35:11;95597.91;;;26.81;31.06
43450;BME280;29041;42.266;23.110;2022-09-13T09:38:13;95610.69;;;26.22;31.26
43450;BME280;29041;42.266;23.110;2022-09-13T09:41:05;95608.81;;;26.52;29.76
43450;BME280;29041;42.266;23.110;2022-09-13T09:44:00;95603.78;;;25.97;28.78
43450;BME280;29041;42.266;23.110;2022-09-13T09:46:55;95600.75;;;25.91;29.19
43450;BME280;29041;42.266;23.110;2022-09-13T09:49:45;95584.22;;;24.94;30.65
43450;BME280;29041;42.266;23.110;2022-09-13T09:56:33;95611.97;;;25.00;31.63
43450;BME280;29041;42.266;23.110;2022-09-13T09:59:26;95611.34;;;24.17;33.56
43450;BME280;29041;42.266;23.110;2022-09-13T10:02:16;95603.06;;;24.72;31.86
43450;BME280;29041;42.266;23.110;2022-09-13T10:05:05;95605.16;;;26.05;29.84
43450;BME280;29041;42.266;23.110;2022-09-13T10:07:54;95603.31;;;26.52;29.33
43450;BME280;29041;42.266;23.110;2022-09-13T10:10:43;95604.13;;;25.62;29.36
43450;BME280;29041;42.266;23.110;2022-09-13T10:13:56;95586.34;;;25.27;29.45
43450;BME280;29041;42.266;23.110;2022-09-13T10:16:44;95587.06;;;26.57;28.61
43450;BME280;29041;42.266;23.110;2022-09-13T10:19:32;95578.31;;;26.29;30.60
43450;BME280;29041;42.266;23.110;2022-09-13T10:22:21;95571.50;;;25.64;29.62
43450;BME280;29041;42.266;23.110;2022-09-13T10:25:13;95585.22;;;27.00;27.01
43450;BME280;29041;42.266;23.110;2022-09-13T10:28:03;95566.75;;;27.43;26.32
43450;BME280;29041;42.266;23.110;2022-09-13T10:30:56;95571.44;;;27.85;27.66
43450;BME280;29041;42.266;23.110;2022-09-13T10:33:53;95571.25;;;26.28;28.99
43450;BME280;29041;42.266;23.110;2022-09-13T10:36:51;95555.66;;;26.71;27.38
43450;BME280;29041;42.266;23.110;2022-09-13T10:39:55;95557.59;;;27.17;26.68
43450;BME280;29041;42.266;23.110;2022-09-13T10:42:50;95556.06;;;26.86;27.99
43450;BME280;29041;42.266;23.110;2022-09-13T10:45:39;95550.22;;;27.69;26.73
43450;BME280;29041;42.266;23.110;2022-09-13T11:03:25;95526.44;;;29.82;24.11
43450;BME280;29041;42.266;23.110;2022-09-13T11:06:23;95536.38;;;26.88;25.79
43450;BME280;29041;42.266;23.110;2022-09-13T11:09:15;95534.13;;;27.67;25.89
43450;BME280;29041;42.266;23.110;2022-09-13T11:12:12;95534.34;;;27.86;26.03
43450;BME280;29041;42.266;23.110;2022-09-13T11:15:12;95524.31;;;27.79;26.76
43450;BME280;29041;42.266;23.110;2022-09-13T11:18:17;95537.31;;;28.05;24.82
43450;BME280;29041;42.266;23.110;2022-09-13T11:21:19;95537.66;;;26.67;25.91
43450;BME280;29041;42.266;23.110;2022-09-13T11:27:31;95522.13;;;28.13;25.38
43450;BME280;29041;42.266;23.110;2022-09-13T11:30:22;95528.50;;;27.84;24.17
43450;BME280;29041;42.266;23.110;2022-09-13T11:33:24;95525.41;;;27.82;25.07
43450;BME280;29041;42.266;23.110;2022-09-13T11:36:27;95518.13;;;27.88;24.86
43450;BME280;29041;42.266;23.110;2022-09-13T11:39:27;95520.84;;;28.40;25.74
43450;BME280;29041;42.266;23.110;2022-09-13T11:42:29;95514.94;;;27.77;26.32
43450;BME280;29041;42.266;23.110;2022-09-13T11:45:23;95509.63;;;28.69;24.42
43450;BME280;29041;42.266;23.110;2022-09-13T11:48:26;95520.44;;;28.02;25.06
43450;BME280;29041;42.266;23.110;2022-09-13T11:51:23;95514.13;;;27.37;26.11
43450;BME280;29041;42.266;23.110;2022-09-13T11:54:24;95503.06;;;27.24;25.03
43450;BME280;29041;42.266;23.110;2022-09-13T11:57:16;95509.66;;;28.08;24.67
43450;BME280;29041;42.266;23.110;2022-09-13T12:00:17;95492.22;;;28.46;23.81
43450;BME280;29041;42.266;23.110;2022-09-13T12:03:13;95493.25;;;26.81;26.54
43450;BME280;29041;42.266;23.110;2022-09-13T12:06:06;95500.78;;;28.00;24.98
43450;BME280;29041;42.266;23.110;2022-09-13T12:09:02;95494.81;;;28.15;24.75
43450;BME280;29041;42.266;23.110;2022-09-13T12:11:54;95487.91;;;28.80;24.20
43450;BME280;29041;42.266;23.110;2022-09-13T12:14:48;95490.69;;;28.45;25.27
43450;BME280;29041;42.266;23.110;2022-09-13T12:17:39;95491.34;;;27.63;26.81
43450;BME280;29041;42.266;23.110;2022-09-13T12:20:31;95486.69;;;26.91;27.13
43450;BME280;29041;42.266;23.110;2022-09-13T12:23:29;95494.63;;;27.70;26.18
43450;BME280;29041;42.266;23.110;2022-09-13T12:26:19;95486.56;;;27.37;24.74
43450;BME280;29041;42.266;23.110;2022-09-13T12:29:14;95491.06;;;26.89;25.64
43450;BME280;29041;42.266;23.110;2022-09-13T12:32:05;95484.28;;;27.75;26.02
43450;BME280;29041;42.266;23.110;2022-09-13T12:34:56;95481.38;;;27.39;27.18
43450;BME280;29041;42.266;23.110;2022-09-13T12:38:01;95476.69;;;27.11;27.02
43450;BME280;29041;42.266;23.110;2022-09-13T12:41:09;95478.16;;;27.28;25.80
43450;BME280;29041;42.266;23.110;2022-09-13T12:47:30;95472.09;;;25.99;27.83
43450;BME280;29041;42.266;23.110;2022-09-13T12:50:38;95478.34;;;26.49;26.86
43450;BME280;29041;42.266;23.110;2022-09-13T12:56:46;95472.88;;;25.83;28.33
43450;BME280;29041;42.266;23.110;2022-09-13T12:59:50;95471.69;;;26.80;27.56
43450;BME280;29041;42.266;23.110;2022-09-13T13:02:48;95465.31;;;26.96;26.44
43450;BME280;29041;42.266;23.110;2022-09-13T13:05:39;95483.75;;;26.23;27.74
43450;BME280;29041;42.266;23.110;2022-09-13T13:08:28;95481.81;;;26.04;26.88
43450;BME280;29041;42.266;23.110;2022-09-13T13:11:19;95487.91;;;26.44;25.58
43450;BME280;29041;42.266;23.110;2022-09-13T13:14:28;95467.56;;;27.14;24.12
43450;BME280;29041;42.266;23.110;2022-09-13T13:17:34;95475.78;;;26.88;25.00
43450;BME280;29041;42.266;23.110;2022-09-13T13:21:23;95484.03;;;26.42;26.15
43450;BME280;29041;42.266;23.110;2022-09-13T13:24:44;95484.34;;;27.32;25.38
43450;BME280;29041;42.266;23.110;2022-09-13T13:27:40;95488.78;;;26.41;26.11
43450;BME280;29041;42.266;23.110;2022-09-13T13:30:51;95493.53;;;26.24;26.18
43450;BME280;29041;42.266;23.110;2022-09-13T13:33:47;95499.44;;;25.90;26.09
43450;BME280;29041;42.266;23.110;2022-09-13T13:36:44;95494.44;;;26.51;25.44
43450;BME280;29041;42.266;23.110;2022-09-13T13:39:37;95486.72;;;26.29;26.03
43450;BME280;29041;42.266;23.110;2022-09-13T13:42:26;95485.75;;;26.82;26.17
43450;BME280;29041;42.266;23.110;2022-09-13T13:45:20;95486.91;;;25.89;26.95
43450;BME280;29041;42.266;23.110;2022-09-13T13:48:14;95490.41;;;25.89;27.28
43450;BME280;29041;42.266;23.110;2022-09-13T13:51:23;95493.84;;;25.77;27.66
43450;BME280;29041;42.266;23.110;2022-09-13T13:54:31;95504.28;;;25.29;27.75
43450;BME280;29041;42.266;23.110;2022-09-13T13:57:56;95495.59;;;25.87;27.53
43450;BME280;29041;42.266;23.110;2022-09-13T14:00:47;95500.66;;;26.05;27.37
43450;BME280;29041;42.266;23.110;2022-09-13T14:06:52;95503.66;;;26.44;26.99
43450;BME280;29041;42.266;23.110;2022-09-13T14:09:51;95496.59;;;26.43;26.51
43450;BME280;29041;42.266;23.110;2022-09-13T14:13:10;95499.38;;;25.93;27.28
43450;BME280;29041;42.266;23.110;2022-09-13T14:16:06;95498.50;;;25.96;26.89
43450;BME280;29041;42.266;23.110;2022-09-13T14:19:03;95492.28;;;25.59;27.73
43450;BME280;29041;42.266;23.110;2022-09-13T14:22:10;95504.13;;;25.56;27.79
43450;BME280;29041;42.266;23.110;2022-09-13T14:25:12;95513.84;;;25.77;27.51
43450;BME280;29041;42.266;23.110;2022-09-13T14:28:00;95512.09;;;26.83;26.74
43450;BME280;29041;42.266;23.110;2022-09-13T14:30:52;95497.03;;;26.87;26.81
43450;BME280;29041;42.266;23.110;2022-09-13T14:33:40;95505.47;;;26.34;27.30
43450;BME280;29041;42.266;23.110;2022-09-13T14:36:27;95511.75;;;26.02;27.51
43450;BME280;29041;42.266;23.110;2022-09-13T14:39:14;95515.28;;;25.49;27.86
43450;BME280;29041;42.266;23.110;2022-09-13T14:42:14;95519.88;;;25.72;27.32
43450;BME280;29041;42.266;23.110;2022-09-13T14:45:01;95526.19;;;25.53;27.31
43450;BME280;29041;42.266;23.110;2022-09-13T14:47:52;95515.44;;;25.42;27.13
43450;BME280;29041;42.266;23.110;2022-09-13T14:50:47;95519.13;;;26.05;27.00
43450;BME280;29041;42.266;23.110;2022-09-13T14:53:37;95514.34;;;25.56;26.89
43450;BME280;29041;42.266;23.110;2022-09-13T14:56:31;95521.63;;;25.46;27.26
43450;BME280;29041;42.266;23.110;2022-09-13T14:59:25;95516.22;;;26.12;26.89
43450;BME280;29041;42.266;23.110;2022-09-13T15:02:18;95509.56;;;24.35;27.51
43450;BME280;29041;42.266;23.110;2022-09-13T15:05:10;95525.22;;;24.82;28.74
43450;BME280;29041;42.266;23.110;2022-09-13T15:07:59;95523.34;;;25.76;27.14
43450;BME280;29041;42.266;23.110;2022-09-13T15:10:46;95528.50;;;25.54;27.54
43450;BME280;29041;42.266;23.110;2022-09-13T15:13:34;95522.13;;;25.41;28.14
43450;BME280;29041;42.266;23.110;2022-09-13T15:16:28;95529.19;;;25.42;28.36
43450;BME280;29041;42.266;23.110;2022-09-13T15:19:27;95531.41;;;25.27;29.02
43450;BME280;29041;42.266;23.110;2022-09-13T15:22:21;95527.53;;;24.40;30.17
43450;BME280;29041;42.266;23.110;2022-09-13T15:25:18;95538.13;;;25.46;28.97
43450;BME280;29041;42.266;23.110;2022-09-13T15:28:19;95531.94;;;25.42;29.14
43450;BME280;29041;42.266;23.110;2022-09-13T15:31:07;95522.72;;;25.85;28.26
43450;BME280;29041;42.266;23.110;2022-09-13T15:34:21;95528.88;;;26.09;27.98
43450;BME280;29041;42.266;23.110;2022-09-13T15:37:11;95539.31;;;25.98;27.64
43450;BME280;29041;42.266;23.110;2022-09-13T15:40:13;95522.19;;;24.77;30.14
43450;BME280;29041;42.266;23.110;2022-09-13T15:43:01;95533.97;;;25.74;29.58
43450;BME280;29041;42.266;23.110;2022-09-13T15:45:48;95542.53;;;25.60;28.68
43450;BME280;29041;42.266;23.110;2022-09-13T15:48:35;95541.13;;;25.31;29.03
43450;BME280;29041;42.266;23.110;2022-09-13T15:51:24;95536.66;;;25.01;29.58
43450;BME280;29041;42.266;23.110;2022-09-13T15:54:13;95548.03;;;25.19;29.47
43450;BME280;29041;42.266;23.110;2022-09-13T15:57:00;95555.31;;;25.30;29.82
43450;BME280;29041;42.266;23.110;2022-09-13T15:59:47;95552.19;;;25.28;30.09
43450;BME280;29041;42.266;23.110;2022-09-13T16:02:34;95562.09;;;24.81;30.83
43450;BME280;29041;42.266;23.110;2022-09-13T16:05:22;95569.06;;;24.86;29.82
43450;BME280;29041;42.266;23.110;2022-09-13T16:08:10;95564.81;;;23.83;32.30